createdAt,value
2023-01-25T00:00:20.307Z,101959.73
2023-01-25T00:01:36.699Z,101966.72
2023-01-25T00:02:42.446Z,101970.27
2023-01-25T00:03:48.047Z,101956.31
2023-01-25T00:05:01.111Z,101956.25
2023-01-25T00:06:13.403Z,101965.00
2023-01-25T00:07:17.885Z,101965.00
2023-01-25T00:08:25.740Z,101964.94
2023-01-25T00:09:32.948Z,101964.94
2023-01-25T00:10:37.075Z,101972.83
2023-01-25T00:11:42.758Z,101966.66
2023-01-25T00:12:47.181Z,101970.14
2023-01-25T00:13:56.185Z,101964.88
2023-01-25T00:15:03.034Z,101967.50
2023-01-25T00:16:09.133Z,101965.72
2023-01-25T00:18:22.095Z,101957.77
2023-01-25T00:19:30.821Z,101959.61
2023-01-25T00:20:33.639Z,101964.81
2023-01-25T00:21:39.870Z,101963.95
2023-01-25T00:22:53.933Z,101955.25
2023-01-25T00:23:59.658Z,101955.25
2023-01-25T00:25:09.951Z,101926.23
2023-01-25T00:26:11.804Z,101925.38
2023-01-25T00:27:16.148Z,101921.91
2023-01-25T00:28:37.751Z,101922.80
2023-01-25T00:29:34.116Z,101907.94
2023-01-25T00:30:44.748Z,101909.65
2023-01-25T00:32:09.781Z,101912.28
2023-01-25T00:33:22.538Z,101918.39
2023-01-25T00:34:32.205Z,101908.73
2023-01-25T00:37:46.373Z,101912.22
2023-01-25T00:38:52.156Z,101904.31
2023-01-25T00:39:58.678Z,101904.31
2023-01-25T00:41:04.105Z,101909.58
2023-01-25T00:42:12.436Z,101911.34
2023-01-25T00:43:16.575Z,101901.69
2023-01-25T00:44:20.882Z,101901.63
2023-01-25T00:45:27.301Z,101903.38
2023-01-25T00:46:31.597Z,101905.08
2023-01-25T00:47:35.742Z,101898.06
2023-01-25T00:48:39.808Z,101901.55
2023-01-25T00:49:47.731Z,101901.55
2023-01-25T00:52:02.104Z,101900.68
2023-01-25T00:53:06.326Z,101896.29
2023-01-25T00:54:17.407Z,101899.77
2023-01-25T00:56:51.161Z,101884.03
2023-01-25T00:58:09.699Z,101884.03
2023-01-25T00:59:05.745Z,101888.31
2023-01-25T01:00:12.282Z,101888.31
2023-01-25T01:01:29.318Z,101885.72
2023-01-25T01:02:25.400Z,101885.72
2023-01-25T01:03:31.248Z,101885.72
2023-01-25T01:04:44.085Z,101883.05
2023-01-25T01:05:45.555Z,101889.17
2023-01-25T01:06:53.157Z,101883.91
2023-01-25T01:08:00.456Z,101886.60
2023-01-25T01:10:44.817Z,101876.98
2023-01-25T01:11:41.938Z,101883.12
2023-01-25T01:12:50.057Z,101881.42
2023-01-25T01:13:58.944Z,101876.12
2023-01-25T01:15:03.200Z,101876.12
2023-01-25T01:16:16.514Z,101876.98
2023-01-25T01:17:20.664Z,101880.45
2023-01-25T01:18:31.392Z,101876.98
2023-01-25T01:19:32.192Z,101879.68
2023-01-25T01:20:39.463Z,101877.05
2023-01-25T01:21:47.220Z,101877.00
2023-01-25T01:23:16.270Z,101879.63
2023-01-25T01:24:02.943Z,101879.63
2023-01-25T01:25:10.512Z,101881.41
2023-01-25T01:26:18.322Z,101878.77
2023-01-25T01:27:24.120Z,101878.77
2023-01-25T01:28:35.301Z,101883.12
2023-01-25T01:29:36.504Z,101877.05
2023-01-25T01:30:42.357Z,101877.05
2023-01-25T01:31:52.492Z,101882.33
2023-01-25T01:32:58.426Z,101881.42
2023-01-25T01:34:04.920Z,101879.68
2023-01-25T01:35:09.872Z,101880.56
2023-01-25T01:36:19.902Z,101870.95
2023-01-25T01:37:24.077Z,101880.61
2023-01-25T01:38:30.134Z,101871.84
2023-01-25T01:39:37.042Z,101871.88
2023-01-25T01:40:46.375Z,101871.06
2023-01-25T01:41:50.559Z,101867.51
2023-01-25T01:43:08.421Z,101848.23
2023-01-25T01:44:22.037Z,101845.55
2023-01-25T01:45:50.260Z,101829.72
2023-01-25T01:46:59.107Z,101835.84
2023-01-25T01:48:03.374Z,101839.30
2023-01-25T01:49:19.396Z,101836.64
2023-01-25T01:50:39.917Z,101839.20
2023-01-25T01:51:42.714Z,101846.24
2023-01-25T01:52:47.026Z,101845.31
2023-01-25T01:53:58.363Z,101842.69
2023-01-25T01:55:08.776Z,101841.77
2023-01-25T01:56:16.130Z,101845.25
2023-01-25T01:59:09.822Z,101846.09
2023-01-25T03:56:41.879Z,101804.19
2023-01-25T03:57:38.750Z,101800.48
2023-01-25T03:58:54.937Z,101800.48
2023-01-25T04:01:53.411Z,101793.23
2023-01-25T04:02:47.315Z,101801.93
2023-01-25T04:03:51.431Z,101803.63
2023-01-25T04:04:56.916Z,101802.72
2023-01-25T04:06:02.621Z,101806.18
2023-01-25T04:07:06.653Z,101808.81
2023-01-25T04:08:12.186Z,101811.39
2023-01-25T04:09:16.413Z,101811.39
2023-01-25T04:10:22.108Z,101821.11
2023-01-25T04:11:31.254Z,101801.84
2023-01-25T04:12:32.421Z,101802.64
2023-01-25T04:13:38.313Z,101805.25
2023-01-25T04:14:44.755Z,101806.97
2023-01-25T04:15:48.720Z,101801.78
2023-01-25T04:16:52.889Z,101804.36
2023-01-25T04:17:58.438Z,101806.11
2023-01-25T04:19:04.053Z,101799.06
2023-01-25T04:20:08.932Z,101799.86
2023-01-25T04:21:13.090Z,101791.95
2023-01-25T04:22:19.347Z,101801.57
2023-01-25T04:23:25.108Z,101795.52
2023-01-25T04:24:35.885Z,101791.90
2023-01-25T04:25:35.178Z,101681.92
2023-01-25T04:26:40.245Z,101791.04
2023-01-25T04:27:45.874Z,101794.52
2023-01-25T04:29:08.122Z,101803.25
2023-01-25T04:30:03.190Z,101796.22
2023-01-25T04:31:08.784Z,101797.98
2023-01-25T04:32:14.507Z,101802.34
2023-01-25T04:33:25.159Z,101802.34
2023-01-25T04:34:28.494Z,101797.06
2023-01-25T04:35:31.791Z,101803.19
2023-01-25T04:36:36.265Z,101799.64
2023-01-25T04:37:40.363Z,101804.91
2023-01-25T04:38:44.481Z,101804.91
2023-01-25T04:39:50.141Z,101802.25
2023-01-25T04:40:55.862Z,101802.25
2023-01-25T04:42:01.371Z,101805.84
2023-01-25T04:43:07.162Z,101798.84
2023-01-25T04:44:12.933Z,101796.20
2023-01-25T04:45:18.674Z,101798.78
2023-01-25T04:46:29.322Z,101790.93
2023-01-25T04:47:30.040Z,101793.52
2023-01-25T04:48:36.832Z,101780.40
2023-01-25T04:49:39.926Z,101792.66
2023-01-25T04:51:01.931Z,101792.66
2023-01-25T04:52:02.234Z,101792.66
2023-01-25T04:53:21.855Z,101789.11
2023-01-25T04:54:22.755Z,101794.38
2023-01-25T04:55:32.759Z,101800.55
2023-01-25T04:56:38.912Z,101803.25
2023-01-25T04:57:46.314Z,101798.78
2023-01-25T04:58:55.851Z,101798.78
2023-01-25T04:59:59.965Z,101795.36
2023-01-25T05:01:07.364Z,101786.61
2023-01-25T05:02:11.741Z,101787.52
2023-01-25T05:03:21.507Z,101796.30
2023-01-25T05:04:25.577Z,101792.80
2023-01-25T05:05:29.607Z,101798.06
2023-01-25T05:06:43.217Z,101798.06
2023-01-25T05:07:45.850Z,101804.13
2023-01-25T05:09:56.948Z,101802.41
2023-01-25T05:10:01.812Z,101802.41
2023-01-25T05:11:08.045Z,101806.77
2023-01-25T05:12:13.506Z,101812.03
2023-01-25T05:13:21.969Z,101806.77
2023-01-25T05:14:27.537Z,101810.31
2023-01-25T05:15:33.739Z,101815.58
2023-01-25T05:16:38.945Z,101819.19
2023-01-25T05:17:48.145Z,101821.77
2023-01-25T05:18:55.162Z,101815.66
2023-01-25T05:20:02.341Z,101821.84
2023-01-25T05:21:08.141Z,101814.86
2023-01-25T05:22:17.172Z,101819.22
2023-01-25T05:24:48.893Z,101814.86
2023-01-25T05:26:09.384Z,101818.37
2023-01-25T05:27:23.752Z,101814.86
2023-01-25T05:28:26.184Z,101814.03
2023-01-25T05:29:37.532Z,101805.25
2023-01-25T05:30:43.188Z,101801.69
2023-01-25T05:31:50.411Z,101803.43
2023-01-25T05:33:00.975Z,101800.80
2023-01-25T05:34:03.766Z,101800.80
2023-01-25T05:35:16.509Z,101799.86
2023-01-25T05:36:20.884Z,101798.94
2023-01-25T05:37:27.156Z,101803.27
2023-01-25T05:38:32.750Z,101808.54
2023-01-25T05:39:46.049Z,101801.50
2023-01-25T05:40:54.809Z,101798.87
2023-01-25T05:42:12.956Z,101800.64
2023-01-25T05:43:16.795Z,101795.36
2023-01-25T05:44:22.377Z,101794.45
2023-01-25T05:45:28.407Z,101797.98
2023-01-25T05:46:35.416Z,101797.98
2023-01-25T05:47:39.503Z,101799.77
2023-01-25T05:48:43.563Z,101794.52
2023-01-25T05:49:47.609Z,101803.33
2023-01-25T05:50:51.747Z,101794.52
2023-01-25T05:51:55.860Z,101795.38
2023-01-25T05:53:03.648Z,101794.50
2023-01-25T05:54:12.883Z,101797.13
2023-01-25T05:55:22.663Z,101796.23
2023-01-25T05:56:29.849Z,101796.23
2023-01-25T05:57:34.077Z,101795.38
2023-01-25T05:58:41.646Z,101803.25
2023-01-25T05:59:47.128Z,101804.98
2023-01-25T06:00:56.388Z,101801.46
2023-01-25T06:02:00.037Z,101798.87
2023-01-25T06:03:04.476Z,101804.95
2023-01-25T06:04:12.551Z,101798.78
2023-01-25T06:05:24.265Z,101808.45
2023-01-25T06:06:27.729Z,101804.09
2023-01-25T06:07:36.955Z,101803.19
2023-01-25T06:08:45.767Z,101808.45
2023-01-25T06:09:49.812Z,101809.31
2023-01-25T06:10:54.029Z,101804.98
2023-01-25T06:12:00.770Z,101808.47
2023-01-25T06:13:10.059Z,101797.92
2023-01-25T06:14:19.447Z,101797.92
2023-01-25T06:15:25.194Z,101797.06
2023-01-25T06:16:29.425Z,101801.46
2023-01-25T06:17:34.997Z,101800.57
2023-01-25T06:20:34.527Z,101803.19
2023-01-25T06:21:38.649Z,101803.19
2023-01-25T06:22:47.256Z,101807.66
2023-01-25T06:23:55.141Z,101810.24
2023-01-25T06:25:05.146Z,101802.33
2023-01-25T06:26:09.467Z,101807.68
2023-01-25T06:27:16.906Z,101807.68
2023-01-25T06:28:22.651Z,101807.75
2023-01-25T06:29:29.483Z,101805.11
2023-01-25T06:30:39.529Z,101809.53
2023-01-25T06:32:21.642Z,101806.91
2023-01-25T06:33:01.706Z,101803.43
2023-01-25T06:34:08.803Z,101801.70
2023-01-25T06:35:21.155Z,101807.84
2023-01-25T06:36:22.407Z,101803.48
2023-01-25T06:37:51.430Z,101799.98
2023-01-25T06:38:34.255Z,101799.06
2023-01-25T06:39:38.349Z,101800.78
2023-01-25T06:40:42.384Z,101788.45
2023-01-25T06:41:48.289Z,101788.45
2023-01-25T06:42:53.818Z,101796.23
2023-01-25T06:44:30.609Z,101797.98
2023-01-25T06:45:18.847Z,101804.09
2023-01-25T06:46:27.310Z,101800.55
2023-01-25T06:47:22.269Z,101797.06
2023-01-25T06:48:32.629Z,101803.97
2023-01-25T06:49:34.433Z,101797.92
2023-01-25T06:50:38.507Z,101806.73
2023-01-25T06:51:46.565Z,101804.09
2023-01-25T06:52:57.775Z,101797.92
2023-01-25T06:54:05.451Z,101800.55
2023-01-25T06:55:10.204Z,101797.92
2023-01-25T06:56:36.714Z,101797.92
2023-01-25T06:57:35.488Z,101791.79
2023-01-25T06:58:49.613Z,101801.46
2023-01-25T07:00:09.944Z,101801.39
2023-01-25T07:01:31.961Z,101794.36
2023-01-25T07:03:04.995Z,101799.64
2023-01-25T07:03:42.424Z,101798.78
2023-01-25T07:04:51.858Z,101800.53
2023-01-25T07:06:11.352Z,101797.01
2023-01-25T07:07:20.291Z,101787.38
2023-01-25T07:08:26.852Z,101794.38
2023-01-25T07:09:34.194Z,101785.59
2023-01-25T07:11:29.079Z,101792.66
2023-01-25T07:11:52.329Z,101792.66
2023-01-25T07:13:00.800Z,101787.31
2023-01-25T07:16:44.113Z,101783.82
2023-01-25T07:17:45.025Z,101785.59
2023-01-25T07:19:09.418Z,101782.98
2023-01-25T07:20:26.431Z,101787.31
2023-01-25T07:21:44.300Z,101782.05
2023-01-25T07:25:55.383Z,101278.45
2023-01-25T07:26:58.446Z,101792.52
2023-01-25T07:28:02.599Z,101795.98
2023-01-25T07:29:16.301Z,101787.17
2023-01-25T07:30:20.622Z,101783.68
2023-01-25T07:31:25.280Z,101793.35
2023-01-25T07:32:30.882Z,101797.70
2023-01-25T07:33:36.471Z,101789.00
2023-01-25T07:34:40.688Z,101793.42
2023-01-25T07:36:54.855Z,101796.05
2023-01-25T07:37:25.163Z,101803.05
2023-01-25T07:37:59.615Z,101796.05
2023-01-25T07:39:05.485Z,101803.11
2023-01-25T07:40:13.705Z,101803.11
2023-01-25T07:41:22.696Z,101794.38
2023-01-25T07:42:30.796Z,101795.28
2023-01-25T07:43:36.401Z,101786.61
2023-01-25T07:44:42.211Z,101790.93
2023-01-25T07:45:47.854Z,101794.44
2023-01-25T07:46:58.148Z,101786.59
2023-01-25T07:48:08.282Z,101782.26
2023-01-25T07:49:17.171Z,101794.50
2023-01-25T07:50:44.813Z,101789.17
2023-01-25T07:51:29.648Z,101790.88
2023-01-25T07:53:42.313Z,101785.52
2023-01-25T07:56:29.787Z,101784.59
2023-01-25T07:57:33.944Z,101785.44
2023-01-25T07:58:38.424Z,101780.04
2023-01-25T07:59:43.186Z,101778.25
2023-01-25T08:00:50.723Z,101778.25
2023-01-25T08:01:57.433Z,101780.80
2023-01-25T08:03:03.048Z,101774.67
2023-01-25T08:04:07.960Z,101779.97
2023-01-25T08:06:00.535Z,101779.97
2023-01-25T08:06:20.348Z,101778.17
2023-01-25T08:07:35.411Z,101786.14
2023-01-25T08:08:39.311Z,101777.33
2023-01-25T08:10:57.355Z,101776.47
2023-01-25T08:11:28.687Z,101776.47
2023-01-25T08:12:30.434Z,101777.31
2023-01-25T08:13:17.398Z,101777.29
2023-01-25T08:14:28.113Z,101782.50
2023-01-25T08:15:32.561Z,101778.95
2023-01-25T08:16:37.303Z,101771.03
2023-01-25T08:17:42.957Z,101431.80
2023-01-25T08:18:50.085Z,101779.84
2023-01-25T08:20:00.931Z,101782.43
2023-01-25T08:22:21.600Z,101778.02
2023-01-25T08:23:42.771Z,101776.23
2023-01-25T08:26:11.216Z,101782.41
2023-01-25T08:27:16.954Z,101779.70
2023-01-25T08:28:46.227Z,101778.78
2023-01-25T08:29:32.020Z,101786.69
2023-01-25T08:30:41.200Z,101786.69
2023-01-25T08:31:49.238Z,101786.61
2023-01-25T08:32:54.932Z,101777.83
2023-01-25T08:34:00.007Z,101778.71
2023-01-25T08:35:04.343Z,101777.91
2023-01-25T08:36:11.294Z,101774.36
2023-01-25T08:37:28.272Z,101774.36
2023-01-25T08:38:29.150Z,101773.52
2023-01-25T08:39:36.344Z,101771.81
2023-01-25T08:40:45.725Z,101773.57
2023-01-25T08:41:53.897Z,101769.16
2023-01-25T08:44:17.926Z,101776.13
2023-01-25T08:45:15.945Z,101776.13
2023-01-25T08:46:25.772Z,101769.09
2023-01-25T08:47:31.216Z,101766.44
2023-01-25T08:48:36.109Z,101766.44
2023-01-25T08:49:45.801Z,101773.40
2023-01-25T08:51:04.811Z,101775.13
2023-01-25T08:52:24.365Z,101774.26
2023-01-25T08:54:44.823Z,101778.61
2023-01-25T08:55:51.596Z,101055.02
2023-01-25T08:57:29.774Z,101775.14
2023-01-25T08:58:06.073Z,101771.72
2023-01-25T08:59:16.484Z,101770.88
2023-01-25T09:00:28.786Z,101769.16
2023-01-25T09:02:00.685Z,101764.05
2023-01-25T09:03:04.491Z,101768.55
2023-01-25T09:03:58.138Z,101767.63
2023-01-25T09:04:56.947Z,101768.42
2023-01-25T09:06:02.694Z,101773.77
2023-01-25T09:07:20.107Z,101773.77
2023-01-25T09:08:23.465Z,101767.56
2023-01-25T09:09:32.513Z,101770.13
2023-01-25T09:11:09.228Z,101775.46
2023-01-25T09:11:45.752Z,101775.46
2023-01-25T09:12:51.405Z,101766.70
2023-01-25T09:13:58.700Z,101769.31
2023-01-25T09:15:03.934Z,101765.78
2023-01-25T09:16:10.297Z,101771.03
2023-01-25T09:21:20.487Z,101765.77
2023-01-25T09:22:24.637Z,101766.70
2023-01-25T09:25:29.187Z,101769.34
2023-01-25T09:26:36.856Z,101764.05
2023-01-25T09:31:42.213Z,101762.30
2023-01-25T09:32:53.882Z,101763.20
2023-01-25T09:33:58.170Z,101764.05
2023-01-25T09:35:04.918Z,101766.68
2023-01-25T09:36:11.411Z,101764.91
2023-01-25T09:37:15.427Z,101764.91
2023-01-25T09:38:19.614Z,101760.50
2023-01-25T09:39:26.927Z,101766.63
2023-01-25T09:40:33.962Z,101764.85
2023-01-25T09:42:13.408Z,101764.85
2023-01-25T09:43:20.767Z,101762.17
2023-01-25T09:44:33.840Z,101760.33
2023-01-25T09:59:03.003Z,101738.64
2023-01-25T10:00:21.164Z,101740.41
2023-01-25T10:01:38.007Z,101741.27
2023-01-25T10:02:39.290Z,101742.16
2023-01-25T10:15:36.195Z,101728.05
2023-01-25T10:16:41.545Z,101720.22
2023-01-25T10:17:26.974Z,101726.41
2023-01-25T10:19:36.591Z,101716.23
2023-01-25T10:20:43.649Z,101724.38
2023-01-25T10:22:29.884Z,101712.92
2023-01-25T10:23:09.654Z,101717.23
2023-01-25T10:24:36.799Z,101717.23
2023-01-25T10:25:49.503Z,101710.89
2023-01-25T10:27:01.086Z,101710.77
2023-01-25T10:28:49.760Z,101712.48
2023-01-25T10:29:48.244Z,101492.45
2023-01-25T10:31:13.128Z,101699.14
2023-01-25T10:32:28.997Z,101697.31
2023-01-25T10:49:01.875Z,101689.35
2023-01-25T10:52:21.074Z,101676.81
2023-01-25T10:53:37.394Z,101674.11
2023-01-25T11:09:37.557Z,101649.70
2023-01-25T11:10:44.064Z,101651.36
2023-01-25T11:11:58.115Z,101653.94
2023-01-25T11:13:29.369Z,101646.80
2023-01-25T11:14:39.364Z,101646.80
2023-01-25T11:30:12.713Z,101649.02
2023-01-25T11:31:28.419Z,101637.47
2023-01-25T11:32:27.420Z,101634.83
2023-01-25T11:33:33.045Z,101636.52
2023-01-25T11:34:37.058Z,101632.11
2023-01-25T11:36:06.716Z,101631.14
2023-01-25T11:37:13.772Z,101631.14
2023-01-25T11:38:43.804Z,101638.84
2023-01-25T11:39:43.802Z,101637.95
2023-01-25T11:40:58.214Z,101637.95
2023-01-25T11:42:23.916Z,101627.27
2023-01-25T11:43:59.581Z,101618.43
2023-01-25T11:45:26.251Z,101627.17
2023-01-25T11:46:55.677Z,101626.31
2023-01-25T11:48:13.275Z,101621.92
2023-01-25T11:49:39.551Z,101614.97
2023-01-25T11:50:58.037Z,101620.33
2023-01-25T11:52:18.559Z,101614.20
2023-01-25T11:53:27.213Z,101612.48
2023-01-25T11:54:42.799Z,101613.34
2023-01-25T11:56:04.899Z,101605.45
2023-01-25T11:58:20.372Z,101611.59
2023-01-25T11:59:05.210Z,101615.23
2023-01-25T12:43:13.106Z,101602.05
2023-01-25T12:44:26.013Z,101603.77
2023-01-25T12:45:35.142Z,101608.92
2023-01-25T12:48:22.472Z,101599.14
2023-01-25T12:49:58.624Z,101588.69
2023-01-25T12:53:23.829Z,101600.86
2023-01-25T12:54:44.866Z,101598.20
2023-01-25T12:55:52.345Z,101600.92
2023-01-25T12:57:31.703Z,101593.80
2023-01-25T12:58:51.243Z,101592.08
2023-01-25T13:00:04.419Z,101598.20
2023-01-25T13:01:33.259Z,101598.20
2023-01-25T13:02:50.593Z,101599.89
2023-01-25T13:04:22.257Z,101592.08
2023-01-25T13:05:23.142Z,101599.92
2023-01-25T13:06:45.721Z,101599.92
2023-01-25T13:07:45.137Z,101597.45
2023-01-25T13:09:06.338Z,101602.91
2023-01-25T13:10:23.421Z,101596.75
2023-01-25T13:11:40.831Z,101586.16
2023-01-25T13:13:18.062Z,101596.67
2023-01-25T13:14:50.900Z,101596.67
2023-01-25T13:15:49.678Z,101597.48
2023-01-25T13:17:09.903Z,101593.95
2023-01-25T13:31:53.105Z,101585.55
2023-01-25T13:34:25.533Z,101573.19
2023-01-25T13:35:57.489Z,101568.75
2023-01-25T13:36:50.429Z,101567.84
2023-01-25T14:12:41.601Z,101550.97
2023-01-25T14:48:28.279Z,101538.70
2023-01-25T14:48:55.901Z,101551.72
2023-01-25T14:50:34.384Z,101544.72
2023-01-25T14:52:06.344Z,101542.08
2023-01-25T14:53:15.649Z,101547.34
2023-01-25T14:54:26.952Z,101543.80
2023-01-25T14:55:38.359Z,101531.55
2023-01-25T14:58:14.770Z,101528.00
2023-01-25T15:00:18.139Z,101535.84
2023-01-25T15:02:08.879Z,101536.66
2023-01-25T15:03:17.604Z,101531.39
2023-01-25T15:04:24.978Z,101531.39
2023-01-25T15:05:44.850Z,101534.02
2023-01-25T15:22:54.494Z,101528.53
2023-01-25T15:23:57.070Z,101533.70
2023-01-25T15:25:23.788Z,101529.21
2023-01-25T15:26:26.936Z,101525.72
2023-01-25T15:28:08.141Z,101530.93
2023-01-25T15:28:51.979Z,101525.58
2023-01-25T15:34:55.350Z,101530.05
2023-01-25T15:37:09.468Z,101522.09
2023-01-25T15:38:29.705Z,101523.84
2023-01-25T15:39:26.093Z,101524.70
2023-01-25T15:40:51.806Z,101522.91
2023-01-25T15:41:42.812Z,101508.83
2023-01-25T15:43:05.757Z,101514.01
2023-01-25T15:43:55.928Z,101520.11
2023-01-25T15:45:01.567Z,101515.76
2023-01-25T15:46:11.654Z,101514.01
2023-01-25T15:48:09.354Z,101514.01
2023-01-25T15:48:34.484Z,101511.35
2023-01-25T15:49:40.859Z,101506.95
2023-01-25T15:50:45.405Z,101505.14
2023-01-25T15:52:01.906Z,101505.14
2023-01-25T15:53:17.406Z,101516.53
2023-01-25T15:54:18.117Z,101507.72
2023-01-25T15:55:26.381Z,101509.50
2023-01-25T16:00:43.093Z,101517.48
2023-01-25T16:01:49.782Z,101507.91
2023-01-25T16:02:53.831Z,101515.01
2023-01-25T16:04:08.350Z,101515.89
2023-01-25T16:05:17.901Z,101515.89
2023-01-25T16:06:26.361Z,101513.31
2023-01-25T16:07:31.652Z,101519.44
2023-01-25T16:08:38.896Z,101511.54
2023-01-25T16:09:47.625Z,101508.91
2023-01-25T16:10:51.862Z,101509.77
2023-01-25T16:11:59.566Z,101510.63
2023-01-25T16:13:08.429Z,101500.95
2023-01-25T16:14:11.541Z,101501.84
2023-01-25T16:15:17.828Z,101501.84
2023-01-25T16:16:24.384Z,101503.56
2023-01-25T16:17:33.424Z,101504.42
2023-01-25T16:18:40.515Z,101506.22
2023-01-25T16:19:51.294Z,101506.22
2023-01-25T16:21:04.177Z,101500.95
2023-01-25T16:22:11.569Z,101499.23
2023-01-25T16:23:18.365Z,101501.02
2023-01-25T16:24:25.672Z,101500.18
2023-01-25T16:26:19.173Z,101505.45
2023-01-25T16:28:16.076Z,101496.58
2023-01-25T16:28:37.625Z,101505.45
2023-01-25T16:29:22.251Z,101499.22
2023-01-25T16:30:29.857Z,101491.31
2023-01-25T16:31:35.826Z,101500.09
2023-01-25T16:33:03.281Z,101493.95
2023-01-25T16:34:20.561Z,101498.33
2023-01-25T16:35:22.792Z,101501.84
2023-01-25T16:36:31.251Z,101507.11
2023-01-25T16:37:36.995Z,101506.20
2023-01-25T16:38:47.980Z,101502.70
2023-01-25T16:39:58.450Z,101512.40
2023-01-25T16:41:05.438Z,101508.91
2023-01-25T16:42:08.317Z,101505.36
2023-01-25T16:43:21.845Z,101504.59
2023-01-25T16:44:27.619Z,101503.73
2023-01-25T16:45:46.144Z,101500.27
2023-01-25T16:46:35.686Z,101504.59
2023-01-25T16:47:52.265Z,101498.46
2023-01-25T16:48:51.155Z,101490.56
2023-01-25T16:51:07.412Z,101493.20
2023-01-25T16:51:38.720Z,101493.20
2023-01-25T16:52:13.151Z,101493.20
2023-01-25T16:53:18.782Z,101493.12
2023-01-25T16:54:29.290Z,101500.09
2023-01-25T16:55:36.676Z,101502.73
2023-01-25T16:56:45.306Z,101500.09
2023-01-25T16:57:54.009Z,101500.09
2023-01-25T16:59:03.577Z,101494.83
2023-01-25T17:00:13.265Z,101499.23
2023-01-25T17:01:19.355Z,101499.23
2023-01-25T17:02:24.802Z,101494.91
2023-01-25T17:03:31.708Z,101496.63
2023-01-25T17:04:40.470Z,101496.63
2023-01-25T17:05:41.621Z,101493.98
2023-01-25T17:06:55.106Z,101497.47
2023-01-25T17:07:59.162Z,101496.58
2023-01-25T17:09:20.645Z,101489.57
2023-01-25T17:10:28.239Z,101494.83
2023-01-25T17:11:24.140Z,101486.11
2023-01-25T17:12:29.747Z,101488.73
2023-01-25T17:13:41.098Z,101491.34
2023-01-25T17:15:50.634Z,101493.12
2023-01-25T17:15:58.380Z,101493.12
2023-01-25T17:18:16.819Z,101486.11
2023-01-25T17:19:25.316Z,101497.55
2023-01-25T17:20:40.489Z,101490.52
2023-01-25T17:23:21.270Z,101491.90
2023-01-25T17:24:26.682Z,101494.00
2023-01-25T17:25:40.464Z,101491.31
2023-01-25T17:27:51.627Z,101493.03
2023-01-25T17:29:49.635Z,101485.16
2023-01-25T17:30:11.048Z,101487.77
2023-01-25T17:31:36.246Z,101488.63
2023-01-25T17:32:34.170Z,101485.14
2023-01-25T17:33:41.513Z,101482.50
2023-01-25T17:34:54.011Z,101477.24
2023-01-25T17:36:13.850Z,101477.16
2023-01-25T17:37:22.123Z,101477.16
2023-01-25T17:38:20.123Z,101484.20
2023-01-25T17:39:26.864Z,101255.28
2023-01-25T17:41:25.522Z,101406.46
2023-01-25T17:41:50.700Z,101482.42
2023-01-25T17:42:56.385Z,101482.42
2023-01-25T17:57:25.329Z,101482.35
2023-01-25T17:58:29.901Z,101482.45
2023-01-25T17:59:35.733Z,101482.45
2023-01-25T18:00:48.919Z,101472.69
2023-01-25T18:01:53.038Z,101473.55
2023-01-25T18:02:59.057Z,101269.73
2023-01-25T22:23:38.798Z,101375.96
2023-01-25T22:24:42.701Z,101380.19
2023-01-25T22:25:46.679Z,101371.26
2023-01-25T22:26:59.766Z,101371.26
2023-01-25T22:28:05.009Z,101370.98
2023-01-25T22:29:09.554Z,101370.98
2023-01-25T22:30:14.223Z,101366.51
2023-01-25T22:31:21.687Z,101376.95
2023-01-25T22:32:25.936Z,101362.91
2023-01-25T22:33:30.154Z,101362.91
2023-01-25T22:34:34.110Z,101361.94
2023-01-25T22:35:38.163Z,101361.94
2023-01-25T22:36:42.192Z,101361.91
2023-01-25T22:37:46.275Z,101360.06
2023-01-25T22:38:51.365Z,101360.95
2023-01-25T22:39:55.402Z,101355.69
2023-01-25T22:41:08.578Z,101361.84
2023-01-25T22:42:12.745Z,101352.15
2023-01-25T22:43:16.715Z,101357.44
2023-01-25T22:44:20.723Z,101357.44
2023-01-25T22:45:24.632Z,101358.34
2023-01-25T22:46:30.209Z,101362.77
2023-01-25T22:47:34.119Z,101353.17
2023-01-25T22:48:38.096Z,101351.40
2023-01-25T22:49:42.054Z,101358.43
2023-01-25T22:50:46.221Z,101354.86
2023-01-25T22:51:50.268Z,101367.16
2023-01-25T22:52:54.263Z,101362.75
2023-01-25T22:53:59.830Z,101359.17
2023-01-25T22:55:03.898Z,101355.63
2023-01-25T22:56:16.475Z,101355.63
2023-01-25T22:57:20.673Z,101353.92
2023-01-25T22:58:24.820Z,101353.92
2023-01-25T22:59:28.747Z,101352.15
2023-01-25T23:00:32.837Z,101349.59
2023-01-25T23:01:36.943Z,101349.59
2023-01-25T23:02:40.999Z,101346.97
2023-01-25T23:03:46.080Z,101346.97
2023-01-25T23:04:50.177Z,101346.05
2023-01-25T23:06:05.531Z,101338.16
2023-01-25T23:07:09.511Z,101345.17
2023-01-25T23:08:13.518Z,101346.03
2023-01-25T23:09:17.539Z,101346.03
2023-01-25T23:10:21.587Z,101343.34
2023-01-25T23:11:26.584Z,101345.89
2023-01-25T23:12:30.566Z,101345.00
2023-01-25T23:13:34.817Z,101341.45
2023-01-25T23:14:38.879Z,101342.28
2023-01-25T23:15:43.848Z,101342.28
2023-01-25T23:16:48.502Z,101344.91
2023-01-25T23:17:52.511Z,101343.14
2023-01-25T23:18:57.016Z,101343.14
2023-01-25T23:20:01.035Z,101339.66
2023-01-25T23:21:05.805Z,101339.66
2023-01-25T23:22:09.701Z,101340.59
2023-01-25T23:23:13.741Z,101339.74
2023-01-25T23:24:17.857Z,101341.54
2023-01-25T23:25:22.455Z,101341.54
2023-01-25T23:26:27.075Z,101340.69
2023-01-25T23:27:31.072Z,101339.83
2023-01-25T23:28:35.174Z,101339.02
2023-01-25T23:29:39.226Z,101332.02
2023-01-25T23:30:43.323Z,101342.54
2023-01-25T23:31:47.358Z,101331.11
2023-01-25T23:32:51.344Z,101334.65
2023-01-25T23:33:58.031Z,101339.00
2023-01-25T23:35:02.052Z,101338.08
2023-01-25T23:36:11.115Z,101336.28
2023-01-25T23:37:16.929Z,101338.88
2023-01-25T23:38:20.744Z,101341.45
2023-01-25T23:39:24.722Z,101341.45
2023-01-25T23:40:28.682Z,101338.83
2023-01-25T23:41:33.071Z,101338.91
2023-01-25T23:42:37.032Z,101339.83
2023-01-25T23:43:42.301Z,101338.91
2023-01-25T23:44:46.303Z,101340.69
2023-01-25T23:45:50.339Z,101336.28
2023-01-25T23:46:54.351Z,101332.91
2023-01-25T23:47:58.366Z,101332.05
2023-01-25T23:49:02.347Z,101328.56
2023-01-25T23:50:07.252Z,101320.67
2023-01-25T23:51:12.565Z,101332.91
2023-01-25T23:52:16.584Z,101332.91
2023-01-25T23:53:21.207Z,101328.47
2023-01-25T23:54:25.177Z,101323.19
2023-01-25T23:55:29.147Z,101323.19
2023-01-25T23:56:33.162Z,101323.10
2023-01-25T23:57:37.168Z,101323.10
2023-01-25T23:58:41.865Z,101327.42
2023-01-25T23:59:45.877Z,101318.61
